Lyman, Washington
Current Conditions -  °F | °C
As of 9:55 AM on Saturday 25 Oct 2014 (Local Time) from KAWO Reporting Station
Overcast Overcast  
Wind Chill: 11°   Ceiling: 7500
Heat Index: 11°   Visibility: 10mi
Dew Point:   Wind: 8mph
Humidity: 82%   Direction: 130°SE
Pressure: 29.54"   Gusts: NA
Location:  48.53°N, 122.06°W
Report Text: KAWO 251655Z AUTO 13007KT 10SM OVC075 11/08 A2954 RMK AO1 P0001
Loading
Personal Weather Stations






























Interactive Weather Map
Tropical Storm Tracking
New forecast layout! Learn more

10-Day Weather Forecast

Advertisements
Track Severe Weather on mobile